Puerto Banus, Marbella

>

This is an optional block (switch it off / on) in the settings - file ($SITE['banners'] = false;)

You can display ads, any other important text or photo’s using text / html or PHP code.

You can place one or more at the top and or bottom and it can all be different for content / size .



Meteosat more information blitzortung!


Radar lluvias  rain snow radar


Visita nuestra red de sitios de meteo:

Documentation for the template used

MeteoibericaRed estaciones Meteorologicas

MeteoclimaticRed estaciones Meteorologicas



Sin Advertencias climatologicas .En este momento tenemos Nivel Verde.    No hay Alarmas

Informes METAR proximidad

   
EBAW - Antwerp
Actualización: 18-11-2017 06:50
Parcialmente nublado  
Parcialmente nublado  
   Viento: WSW 13 km/h
Viento: WSW 13 km/h
Temperatura: 5°C
Térmica: 2°C
Punto de rocío: 1°C
Humedad: 76%
Baromètro: 1022 hPa
Nublado: Parcialmente nublado
Visibilidad: More than 10 km
detalles de la nube: Parcialmente nublado 3500 ft
EBAW 180550Z 24007KT 9999 BKN035 05/01 Q1022 NOSIG
EBLG - Liège
Actualización: 18-11-2017 06:50
Nubes dispersas  
Nubes dispersas  
   Viento: SSW 16.7 km/h
Viento: SSW 16.7 km/h
Temperatura: 1°C
Térmica: -3°C
Punto de rocío: 0°C
Humedad: 93%
Baromètro: 1023 hPa
Nublado: Nubes dispersas
Visibilidad: 9 km
detalles de la nube: Nubes dispersas 3000 ft
EBLG 180550Z 20009KT 9000 FEW030 01/M00 Q1023 NOSIG
EBCV - Mons/Bergen
Actualización: 18-11-2017 06:55
Parcialmente nublado  
Parcialmente nublado  
   Viento: SW 9.3 km/h
Viento: SW 9.3 km/h
Temperatura: 1°C
Térmica: -2°C
Punto de rocío: 0°C
Humedad: 93%
Baromètro: 1024 hPa
Nublado: Parcialmente nublado
Visibilidad: 7 km
detalles de la nube: Parcialmente nublado 3300 ft
EBCV 180555Z AUTO 22005KT 7000 BKN033/// 01/00 Q1024 WHT
EHBK - Maastricht
Actualización: 18-11-2017 06:55
Nublado  
Nublado  
   Viento: SSW 14.8 km/h
Viento: SSW 14.8 km/h
Temperatura: 1°C
Térmica: -3°C
Punto de rocío: 0°C
Humedad: 93%
Baromètro: 1022 hPa
Nublado: Nublado
Visibilidad: More than 10 km
detalles de la nube: Nublado 3300 ft
EHBK 180555Z AUTO 20008KT 9999 OVC033 01/00 Q1022 NOSIG
ELLX - Luxemburg
Actualización: 18-11-2017 06:50
Nubes dispersas  
Nubes dispersas  
   Viento: West 9.3 km/h
Viento: West 9.3 km/h
Temperatura: -1°C
Térmica: -4°C
Punto de rocío: -2°C
Humedad: 93%
Baromètro: 1023 hPa
Nublado: Nubes dispersas
Visibilidad: More than 10 km
detalles de la nube: Nubes dispersas
ELLX 180550Z 28005KT 250V310 9999 3000SW R24/P2000N FEW000 M01/M02 Q1023 TEMPO 4000 BCFG
EBOS - Oostende
Actualización: 18-11-2017 06:50
Parcialmente nublado  
Parcialmente nublado  
   Viento: West 27.8 km/h
Viento: West 27.8 km/h
Temperatura: 7°C
Térmica: 3°C
Punto de rocío: 1°C
Humedad: 66%
Baromètro: 1023 hPa
Nublado: Parcialmente nublado
Visibilidad: More than 10 km
detalles de la nube: Parcialmente nublado 3500 ft
EBOS 180550Z 27015KT 9999 BKN035 07/01 Q1023 NOSIG

Guión original por  Saratoga-weather.org Adaptado para la plantilla por  Weerstation Leuven

Usted encontrará nuestra información del tiempo también en:

Weather Underground

Iberian Peninsula Weather Network